• Join FlightAware (Why Join?)
  • Login
  • US Flag 
01:14PM EDT


 

Airport Tracker/Info


-or-


 

Live Flight TrackerFlight Track Log ✈ CPT8773 ✈ 17-Jul-2013 ✈ KCPR - KCOD

Flight Track Log - Related Links

Times and Time Zones

All times are in EDT time to prevent confusion due to time zone crossing. See the CPT8773 flight status page for this flight to view local times or setup timezone preferences in your user account.

Time Position Orientation Groundspeed Altitude Reporting Facility
EDT Latitude Longitude Course Direction KTS MPH feet Rate Location/Type
10:06AM 42.9381 -106.5225 295° West 121 139 7,000  Level Denver Center
10:07AM 42.9714 -106.5375 342° North 127 146 7,500 480 Climbing Denver Center
10:08AM 43.0114 -106.5572 340° North 132 152 8,000 480 Climbing Denver Center
10:09AM 43.0464 -106.5761 338° Northwest 136 157 8,500 480 Climbing Denver Center
10:10AM 43.1321 -106.3520 308° West  Level FlightAware Approximate
10:10AM 43.0822 -106.5942 340° North 139 160 9,000  Level Denver Center
10:11AM 43.1561 -106.4017 295° West  Level FlightAware Approximate
10:11AM 43.1244 -106.6142 341° North 142 163 9,500  Level Denver Center
10:12AM 43.1625 -106.6289 344° North 144 166 10,000 540 Climbing Denver Center
10:13AM 43.2019 -106.6511 338° Northwest 143 165 10,700 600 Climbing Denver Center
10:14AM 43.2389 -106.6644 345° North 143 165 11,300 480 Climbing Denver Center
10:15AM 43.2794 -106.6850 340° North 140 161 11,800 300 Climbing Denver Center
10:16AM 43.3150 -106.7050 338° Northwest 144 166 12,000 60 Climbing Denver Center
10:17AM 43.3467 -106.7583 309° West 159 183 12,000  Level Denver Center
10:18AM 43.3697 -106.8081 303° West 161 185 12,000  Level Denver Center
10:19AM 43.3986 -106.8628 306° West 160 184 12,000  Level Denver Center
10:20AM 43.4211 -106.9064 305° West 160 184 12,000  Level Denver Center
10:21AM 43.4469 -106.9575 305° West 162 186 12,000  Level Denver Center
10:22AM 43.4792 -107.0175 307° West 162 186 12,000  Level Denver Center
10:23AM 43.5058 -107.0669 307° West 162 186 12,000  Level Denver Center
10:24AM 43.5325 -107.1186 305° West 164 189 12,000  Level Denver Center
10:25AM 43.5586 -107.1697 305° West 164 189 12,000  Level Denver Center
10:26AM 43.5856 -107.2183 307° West 162 186 12,000  Level Denver Center
10:27AM 43.6117 -107.2689 306° West 161 185 12,000  Level Denver Center
10:28AM 43.6425 -107.3286 306° West 160 184 12,000  Level Denver Center
10:29AM 43.6683 -107.3789 305° West 160 184 12,000  Level Denver Center
10:30AM 43.6939 -107.4306 304° West 162 186 12,000  Level Denver Center
10:31AM 43.7206 -107.4806 306° West 162 186 12,000  Level Denver Center
10:32AM 43.7469 -107.5303 306° West 161 185 12,000  Level Denver Center
10:34AM 43.7728 -107.5814 305° West 161 185 12,000  Level Denver Center
10:35AM 43.8042 -107.6425 305° West 162 186 12,000  Level Denver Center
10:36AM 43.8300 -107.6939 305° West 162 186 12,000  Level Salt Lake Center
10:37AM 43.8606 -107.7558 304° West 162 186 12,000  Level Salt Lake Center
10:38AM 43.8867 -107.8072 305° West 163 188 12,000  Level Salt Lake Center
10:39AM 43.9133 -107.8569 307° West 162 186 12,000  Level Salt Lake Center